Time;durP1;ratioP1;P1;durP2;ratioP2;P2;SDS_P1;SDS_P2;PMS_P1;PMS_P2;Temp;Humidity;BMP_temperature;BMP_pressure;BME280_temperature;BME280_humidity;BME280_pressure;Samples;Min_cycle;Max_cycle;Signal;HPM_P1;HPM_P2
2021/03/14 00:00:54;;;;;;;17.73;10.03;;;;;;;5.55;100.00;100858.15;1859825;77;21055;-51
2021/03/14 00:03:23;;;;;;;19.15;9.83;;;;;;;5.54;100.00;100855.06;1859598;77;21603;-51
2021/03/14 00:05:51;;;;;;;16.48;9.48;;;;;;;5.52;100.00;100848.89;1859637;77;21131;-51
2021/03/14 00:08:23;;;;;;;16.82;10.03;;;;;;;5.53;100.00;100842.66;1859581;77;21433;-51
2021/03/14 00:10:57;;;;;;;16.15;8.93;;;;;;;5.54;100.00;100848.41;1859580;77;21111;-51
2021/03/14 00:13:30;;;;;;;16.57;9.13;;;;;;;5.54;100.00;100842.66;1859775;77;21130;-51
2021/03/14 00:15:58;;;;;;;18.25;9.65;;;;;;;5.55;100.00;100845.75;1859551;77;21040;-51
2021/03/14 00:18:28;;;;;;;17.85;9.55;;;;;;;5.57;100.00;100843.05;1859633;77;21055;-51
2021/03/14 00:20:57;;;;;;;21.75;9.33;;;;;;;5.56;100.00;100838.62;1859658;77;22222;-51
2021/03/14 00:23:25;;;;;;;20.02;9.23;;;;;;;5.56;100.00;100844.84;1859550;77;21055;-51
2021/03/14 00:25:56;;;;;;;16.00;8.28;;;;;;;5.57;100.00;100833.73;1859571;77;21468;-51
2021/03/14 00:28:24;;;;;;;11.87;7.73;;;;;;;5.57;100.00;100833.73;1859645;77;21043;-51
2021/03/14 00:30:52;;;;;;;14.05;7.97;;;;;;;5.55;100.00;100827.13;1859736;77;21571;-51
2021/03/14 00:33:20;;;;;;;15.68;8.50;;;;;;;5.53;100.00;100821.39;1859794;77;23395;-51
2021/03/14 00:35:48;;;;;;;19.37;8.53;;;;;;;5.50;100.00;100816.11;1859543;77;21159;-51
2021/03/14 00:38:15;;;;;;;13.08;8.18;;;;;;;5.48;100.00;100815.25;1859678;77;21119;-51
2021/03/14 00:40:44;;;;;;;14.47;7.83;;;;;;;5.45;100.00;100816.16;1859553;77;21143;-50
2021/03/14 00:43:13;;;;;;;14.78;8.85;;;;;;;5.40;100.00;100816.21;1859577;77;21096;-51
2021/03/14 00:45:41;;;;;;;17.70;8.90;;;;;;;5.39;100.00;100818.44;1831431;77;21595;-51
2021/03/14 00:48:10;;;;;;;16.07;9.63;;;;;;;5.39;100.00;100812.26;1829378;78;21126;-52
2021/03/14 00:50:41;;;;;;;16.62;9.28;;;;;;;5.40;100.00;100821.53;1829581;78;21094;-52
2021/03/14 00:53:10;;;;;;;17.40;9.30;;;;;;;5.45;100.00;100814.83;1829523;78;21126;-52
2021/03/14 00:55:40;;;;;;;17.82;9.40;;;;;;;5.49;100.00;100815.22;1829609;78;21106;-50
2021/03/14 00:58:08;;;;;;;16.37;8.10;;;;;;;5.54;100.00;100816.50;1829557;78;21693;-50
2021/03/14 01:00:36;;;;;;;19.62;8.83;;;;;;;5.57;100.00;100820.44;1829586;78;21038;-51
2021/03/14 01:03:05;;;;;;;19.77;9.75;;;;;;;5.58;100.00;100812.89;1829574;78;21153;-51
2021/03/14 01:05:34;;;;;;;18.10;9.83;;;;;;;5.59;100.00;100814.64;1829258;78;21134;-52
2021/03/14 01:08:04;;;;;;;20.25;10.20;;;;;;;5.60;100.00;100816.41;1833859;78;21098;-51
2021/03/14 01:10:32;;;;;;;18.02;9.58;;;;;;;5.60;100.00;100807.09;1835653;78;21184;-51
2021/03/14 01:13:00;;;;;;;17.00;8.75;;;;;;;5.62;100.00;100799.97;1835700;78;21095;-51
2021/03/14 01:15:28;;;;;;;17.32;9.50;;;;;;;5.67;100.00;100803.91;1835662;78;21031;-50
2021/03/14 01:17:57;;;;;;;20.00;10.38;;;;;;;5.69;100.00;100804.77;1835728;78;21041;-51
2021/03/14 01:20:27;;;;;;;19.42;9.38;;;;;;;5.68;100.00;100798.58;1835604;77;21486;-51
2021/03/14 01:22:55;;;;;;;17.25;9.33;;;;;;;5.65;100.00;100794.64;1835850;78;22086;-52
2021/03/14 01:25:23;;;;;;;18.85;9.48;;;;;;;5.55;100.00;100811.61;1835548;78;21078;-50
2021/03/14 01:27:53;;;;;;;16.82;8.65;;;;;;;5.49;100.00;100810.36;1835740;78;21089;-50
2021/03/14 01:30:21;;;;;;;22.00;9.90;;;;;;;5.45;100.00;100805.09;1835606;78;21102;-50
2021/03/14 01:32:49;;;;;;;23.65;10.72;;;;;;;5.39;100.00;100803.81;1835800;78;21685;-51
2021/03/14 01:35:18;;;;;;;27.70;12.13;;;;;;;5.33;100.00;100794.59;1835710;78;21351;-51
2021/03/14 01:37:45;;;;;;;20.85;11.15;;;;;;;5.27;100.00;100796.01;1835597;78;21149;-51
2021/03/14 01:40:16;;;;;;;24.37;11.43;;;;;;;5.24;100.00;100796.05;1835752;78;21525;-51
2021/03/14 01:42:44;;;;;;;20.97;10.88;;;;;;;5.25;100.00;100794.69;1835622;78;21058;-51
2021/03/14 01:45:13;;;;;;;24.70;11.70;;;;;;;5.29;100.00;100791.55;1836471;77;21118;-51
2021/03/14 01:47:44;;;;;;;21.73;10.25;;;;;;;5.32;100.00;100786.19;1836821;78;21186;-51
2021/03/14 01:50:18;;;;;;;22.70;10.23;;;;;;;5.32;100.00;100780.88;1836930;78;21094;-51
2021/03/14 01:52:46;;;;;;;;;;;;;;;5.32;100.00;100776.88;1839648;78;21211;-51
2021/03/14 01:55:16;;;;;;;25.10;11.93;;;;;;;5.35;100.00;100772.85;1836985;77;20541;-52
2021/03/14 01:57:44;;;;;;;25.92;11.05;;;;;;;5.37;100.00;100759.55;1836858;78;21125;-52
2021/03/14 02:00:15;;;;;;;23.15;11.28;;;;;;;5.39;100.00;100765.27;1836803;77;21354;-51
2021/03/14 02:02:44;;;;;;;24.95;11.90;;;;;;;5.40;100.00;100755.05;1836736;78;21110;-51
2021/03/14 02:05:14;;;;;;;27.02;11.70;;;;;;;5.40;100.00;100757.71;1836738;78;21094;-50
2021/03/14 02:07:44;;;;;;;18.57;10.45;;;;;;;5.41;100.00;100764.78;1832802;77;21538;-50
2021/03/14 02:10:13;;;;;;;20.55;10.43;;;;;;;5.43;100.00;100756.80;1827992;78;21098;-50
2021/03/14 02:12:54;;;;;;;22.13;11.12;;;;;;;5.48;100.00;100770.05;1828110;78;21113;-51
2021/03/14 02:15:22;;;;;;;21.52;9.95;;;;;;;5.50;100.00;100766.91;1828071;78;21550;-51
2021/03/14 02:17:50;;;;;;;23.02;10.70;;;;;;;5.52;100.00;100771.75;1828156;78;21542;-51
2021/03/14 02:20:22;;;;;;;25.48;10.50;;;;;;;5.51;100.00;100772.66;1828003;78;21455;-51
2021/03/14 02:22:50;;;;;;;21.33;10.30;;;;;;;5.49;100.00;100779.78;1827521;77;21149;-51
2021/03/14 02:25:29;;;;;;;21.20;10.85;;;;;;;5.49;100.00;100775.80;1828017;78;21185;-51
2021/03/14 02:27:56;;;;;;;24.98;10.30;;;;;;;5.48;100.00;100768.72;1827928;78;21050;-51
2021/03/14 02:30:24;;;;;;;23.90;11.35;;;;;;;5.49;100.00;100782.44;1828091;78;21058;-51
2021/03/14 02:32:51;;;;;;;22.05;10.88;;;;;;;5.48;100.00;100773.56;1783521;78;21138;-51
2021/03/14 02:35:19;;;;;;;28.98;11.68;;;;;;;5.49;100.00;100768.67;1828112;78;21157;-51
2021/03/14 02:37:47;;;;;;;26.57;10.75;;;;;;;5.48;100.00;100767.39;1827992;78;21352;-51
2021/03/14 02:40:17;;;;;;;21.48;10.38;;;;;;;5.44;100.00;100759.45;1827992;78;21070;-51
2021/03/14 02:42:44;;;;;;;27.85;10.65;;;;;;;5.38;100.00;100752.86;1772581;78;21054;-51
2021/03/14 02:45:13;;;;;;;30.62;10.23;;;;;;;5.32;100.00;100748.97;1808438;78;21578;-51
2021/03/14 02:47:40;;;;;;;21.80;10.40;;;;;;;5.26;100.00;100750.39;1738411;82;21150;-51
2021/03/14 02:50:17;;;;;;;27.00;10.98;;;;;;;5.24;100.00;100758.84;1782084;80;21229;-50
2021/03/14 02:52:45;;;;;;;25.97;11.35;;;;;;;5.20;100.00;100754.47;1738403;82;21090;-51
2021/03/14 02:55:13;;;;;;;25.20;11.03;;;;;;;5.16;100.00;100746.50;1752664;80;21142;-51
2021/03/14 02:57:42;;;;;;;24.95;11.70;;;;;;;5.18;100.00;100748.26;1738461;82;21162;-51
2021/03/14 03:00:13;;;;;;;29.40;12.05;;;;;;;5.16;100.00;100749.16;1704639;80;21158;-51
2021/03/14 03:02:43;;;;;;;26.02;11.38;;;;;;;5.16;100.00;100746.97;1738420;82;21388;-51
2021/03/14 03:05:13;;;;;;;28.67;11.40;;;;;;;5.17;100.00;100743.41;1752992;80;21151;-51
2021/03/14 03:07:48;;;;;;;23.45;10.82;;;;;;;5.16;100.00;100741.65;1752414;80;21174;-50
2021/03/14 03:10:16;;;;;;;33.55;12.33;;;;;;;5.22;100.00;100747.34;1764319;81;21058;-51
2021/03/14 03:12:45;;;;;;;30.12;11.60;;;;;;;5.24;100.00;100737.57;1776830;80;21075;-51
2021/03/14 03:15:16;;;;;;;28.12;11.53;;;;;;;5.24;100.00;100732.25;1764381;81;22264;-51
2021/03/14 03:17:44;;;;;;;28.50;12.43;;;;;;;5.24;100.00;100730.92;1776758;80;20941;-50
2021/03/14 03:20:13;;;;;;;28.87;11.33;;;;;;;5.21;100.00;100726.98;1762016;81;21124;-51
2021/03/14 03:22:41;;;;;;;33.65;13.03;;;;;;;5.20;100.00;100719.44;1745793;80;21134;-51
2021/03/14 03:25:10;;;;;;;29.98;11.90;;;;;;;5.19;100.00;100708.81;1764367;81;21152;-51
2021/03/14 03:27:38;;;;;;;25.97;12.00;;;;;;;5.20;100.00;100700.84;1775766;80;22662;-51
2021/03/14 03:30:08;;;;;;;33.18;12.68;;;;;;;5.22;100.00;100688.87;1764336;81;21153;-51
2021/03/14 03:32:36;;;;;;;31.27;13.50;;;;;;;5.23;100.00;100687.96;1776764;80;21135;-51
2021/03/14 03:35:08;;;;;;;31.23;13.25;;;;;;;5.22;100.00;100690.20;1764391;81;21045;-51
2021/03/14 03:37:36;;;;;;;28.17;13.15;;;;;;;5.23;100.00;100690.63;1776885;80;21463;-52
2021/03/14 03:40:07;;;;;;;34.98;13.50;;;;;;;5.24;100.00;100693.70;1764275;81;21371;-51
2021/03/14 03:42:43;;;;;;;33.13;13.58;;;;;;;5.24;100.00;100684.41;1776764;80;21067;-51
2021/03/14 03:45:12;;;;;;;36.50;14.07;;;;;;;5.24;100.00;100685.73;1771301;80;21582;-51
2021/03/14 03:47:42;;;;;;;30.57;13.38;;;;;;;5.22;100.00;100676.44;1759644;80;21173;-51
2021/03/14 03:50:14;;;;;;;39.25;16.42;;;;;;;5.21;100.00;100677.34;1810484;79;21579;-51
2021/03/14 03:52:43;;;;;;;36.45;14.93;;;;;;;5.19;100.00;100674.26;1810452;78;21191;-51
2021/03/14 03:55:12;;;;;;;35.73;14.60;;;;;;;5.20;100.00;100678.70;1789462;80;21137;-51
2021/03/14 03:57:39;;;;;;;36.25;14.18;;;;;;;5.22;100.00;100680.42;1810437;79;21165;-51
2021/03/14 04:00:09;;;;;;;31.48;14.90;;;;;;;5.22;100.00;100678.23;1789532;80;21050;-51
2021/03/14 04:02:37;;;;;;;37.13;15.50;;;;;;;5.24;100.00;100679.09;1810446;79;21063;-51
2021/03/14 04:05:08;;;;;;;37.03;14.33;;;;;;;5.24;100.00;100681.28;1789658;80;21461;-51
2021/03/14 04:07:37;;;;;;;33.13;14.50;;;;;;;5.24;100.00;100689.72;1812778;78;21273;-51
2021/03/14 04:10:13;;;;;;;35.95;15.50;;;;;;;5.24;100.00;100680.41;1795432;80;21086;-51
2021/03/14 04:12:42;;;;;;;41.45;16.32;;;;;;;5.26;100.00;100690.58;1828028;78;21110;-51
2021/03/14 04:15:13;;;;;;;35.40;16.32;;;;;;;5.27;100.00;100683.03;1795450;80;21568;-51
2021/03/14 04:17:40;;;;;;;42.40;17.67;;;;;;;5.29;100.00;100677.23;1827979;78;21953;-51
2021/03/14 04:20:18;;;;;;;34.78;15.63;;;;;;;5.33;100.00;100675.42;1765707;80;21502;-51
2021/03/14 04:22:49;;;;;;;40.95;16.70;;;;;;;5.35;100.00;100675.81;1828070;78;21047;-51
2021/03/14 04:25:17;;;;;;;36.60;16.35;;;;;;;5.35;100.00;100667.83;1767104;80;21511;-50
2021/03/14 04:27:47;;;;;;;40.10;15.90;;;;;;;5.35;100.00;100667.83;1828155;78;21050;-50
2021/03/14 04:30:16;;;;;;;35.30;16.25;;;;;;;5.37;100.00;100667.36;1795658;80;21194;-50
2021/03/14 04:32:44;;;;;;;35.33;16.65;;;;;;;5.39;100.00;100664.22;1828265;78;22169;-50
2021/03/14 04:35:12;;;;;;;38.90;16.57;;;;;;;5.42;100.00;100665.53;1795634;80;21177;-51
2021/03/14 04:37:41;;;;;;;36.05;15.83;;;;;;;5.41;100.00;100674.37;1798752;78;21122;-51
2021/03/14 04:40:11;;;;;;;35.08;16.62;;;;;;;5.41;100.00;100674.37;1795451;80;21169;-51
2021/03/14 04:42:41;;;;;;;35.63;15.80;;;;;;;5.48;100.00;100663.20;1828170;78;22370;-51
2021/03/14 04:45:09;;;;;;;31.95;15.43;;;;;;;5.52;100.00;100669.37;1765641;80;21089;-50
2021/03/14 04:47:43;;;;;;;44.88;16.15;;;;;;;5.56;100.00;100668.41;1762483;81;21068;-50
2021/03/14 04:50:14;;;;;;;35.13;15.27;;;;;;;5.57;100.00;100667.51;1795853;80;21569;-52
2021/03/14 04:52:44;;;;;;;29.42;14.10;;;;;;;5.56;100.00;100667.08;1795659;80;21496;-50
2021/03/14 04:55:13;;;;;;;32.00;14.55;;;;;;;5.54;100.00;100663.58;1795616;80;21535;-51
2021/03/14 04:57:41;;;;;;;25.30;13.20;;;;;;;5.53;100.00;100664.48;1762387;81;21106;-51
2021/03/14 05:00:12;;;;;;;30.70;13.48;;;;;;;5.54;100.00;100663.58;1735009;81;21069;-51
2021/03/14 05:02:43;;;;;;;31.20;14.20;;;;;;;5.50;100.00;100653.89;1795485;80;21165;-51
2021/03/14 05:05:12;;;;;;;33.33;14.43;;;;;;;5.42;100.00;100654.90;1795574;80;21140;-51
2021/03/14 05:07:45;;;;;;;38.48;13.80;;;;;;;5.40;100.00;100667.30;1795174;80;21614;-51
2021/03/14 05:10:19;;;;;;;29.87;13.60;;;;;;;5.36;100.00;100660.28;1789633;80;21141;-52
2021/03/14 05:12:47;;;;;;;32.75;13.18;;;;;;;5.37;100.00;100659.38;1789642;80;21082;-52
2021/03/14 05:15:16;;;;;;;33.25;14.20;;;;;;;5.37;100.00;100662.03;1789654;80;21043;-52
2021/03/14 05:17:46;;;;;;;36.28;14.03;;;;;;;5.37;100.00;100667.36;1789671;80;21092;-52
2021/03/14 05:20:16;;;;;;;24.57;12.82;;;;;;;5.41;100.00;100670.86;1756878;81;22303;-51
2021/03/14 05:22:45;;;;;;;34.50;14.33;;;;;;;5.41;100.00;100666.41;1789620;80;21083;-51
2021/03/14 05:25:19;;;;;;;26.97;12.15;;;;;;;5.36;100.00;100672.25;1789697;80;21566;-51
2021/03/14 05:27:49;;;;;;;38.90;12.78;;;;;;;5.36;100.00;100672.25;1789923;80;21058;-51
2021/03/14 05:30:26;;;;;;;29.27;13.43;;;;;;;5.35;100.00;100681.13;1789582;80;21096;-51
2021/03/14 05:32:55;;;;;;;35.13;13.58;;;;;;;5.35;100.00;100681.13;1756863;81;21198;-51
2021/03/14 05:35:25;;;;;;;30.62;13.88;;;;;;;5.34;100.00;100683.36;1789768;80;21709;-51
2021/03/14 05:37:56;;;;;;;31.10;13.32;;;;;;;5.39;100.00;100686.82;1756818;81;21125;-51
2021/03/14 05:40:25;;;;;;;26.85;12.07;;;;;;;5.43;100.00;100689.89;1756855;81;20887;-51
2021/03/14 05:42:53;;;;;;;26.80;12.28;;;;;;;5.48;100.00;100686.28;1789565;80;21123;-51
2021/03/14 05:45:21;;;;;;;28.67;12.75;;;;;;;5.49;100.00;100688.03;1755353;81;21565;-51
2021/03/14 05:47:49;;;;;;;27.17;12.13;;;;;;;5.54;100.00;100687.07;1771299;80;21072;-51
2021/03/14 05:50:23;;;;;;;25.37;12.45;;;;;;;5.59;100.00;100690.97;1755046;81;21482;-51
2021/03/14 05:52:51;;;;;;;25.33;12.70;;;;;;;5.62;100.00;100694.91;1771765;81;21539;-51
2021/03/14 05:55:24;;;;;;;25.90;12.63;;;;;;;5.62;100.00;100694.91;1755000;81;21739;-51
2021/03/14 05:57:55;;;;;;;28.15;13.30;;;;;;;5.61;100.00;100690.48;1771481;81;22329;-51
2021/03/14 06:00:26;;;;;;;26.75;12.98;;;;;;;5.63;100.00;100703.78;1754309;81;20998;-52
2021/03/14 06:03:00;;;;;;;22.67;12.47;;;;;;;5.68;100.00;100703.25;1771410;81;20948;-51
2021/03/14 06:05:30;;;;;;;24.90;12.65;;;;;;;5.74;100.00;100697.39;1754912;81;21054;-51
2021/03/14 06:07:59;;;;;;;25.27;12.03;;;;;;;5.79;100.00;100698.66;1771476;80;21551;-51
2021/03/14 06:10:28;;;;;;;22.37;11.78;;;;;;;5.83;100.00;100701.69;1754796;81;21117;-51
2021/03/14 06:12:55;;;;;;;22.95;12.47;;;;;;;5.87;100.00;100714.50;1771430;81;20929;-51
2021/03/14 06:15:23;;;;;;;23.15;11.48;;;;;;;5.86;100.00;100708.76;1754879;81;21121;-51
2021/03/14 06:17:51;;;;;;;21.02;11.08;;;;;;;5.90;100.00;100714.45;1771450;81;21143;-52
2021/03/14 06:20:41;;;;;;;19.23;10.93;;;;;;;5.91;100.00;100714.87;1755013;81;21038;-51
2021/03/14 06:23:15;;;;;;;20.72;10.53;;;;;;;5.94;100.00;100717.48;1771370;80;21196;-51
2021/03/14 06:25:47;;;;;;;23.73;12.03;;;;;;;5.97;100.00;100720.55;1754770;81;21121;-51
2021/03/14 06:28:15;;;;;;;21.20;12.25;;;;;;;6.00;100.00;100721.36;1771138;81;21158;-51
2021/03/14 06:30:43;;;;;;;18.10;10.60;;;;;;;6.07;100.00;100718.63;1754934;81;21152;-51
2021/03/14 06:33:16;;;;;;;19.20;10.90;;;;;;;6.15;100.00;100716.73;1771368;81;21115;-51
2021/03/14 06:35:51;;;;;;;18.10;10.10;;;;;;;6.23;100.00;100723.26;1754927;81;21373;-51
2021/03/14 06:38:31;;;;;;;19.42;11.63;;;;;;;6.25;100.00;100726.30;1771417;81;21162;-51
2021/03/14 06:41:12;;;;;;;18.87;11.50;;;;;;;6.27;100.00;100729.81;1753931;81;21157;-51
2021/03/14 06:43:46;;;;;;;21.52;12.63;;;;;;;6.36;100.00;100730.58;1774186;79;21122;-51
2021/03/14 06:46:29;;;;;;;20.70;12.10;;;;;;;6.44;100.00;100725.98;1825716;78;21464;-51
2021/03/14 06:49:14;;;;;;;22.02;12.47;;;;;;;6.54;100.00;100746.23;1825419;78;22340;-51
2021/03/14 06:51:49;;;;;;;20.35;12.15;;;;;;;6.59;100.00;100743.02;1825715;78;21316;-50
2021/03/14 06:54:45;;;;;;;;;;;;;;;6.69;100.00;100747.72;1828465;78;21063;-51
2021/03/14 06:57:17;;;;;;;20.10;11.90;;;;;;;6.75;100.00;100757.39;1825728;78;20551;-51
2021/03/14 06:59:49;;;;;;;22.07;13.33;;;;;;;6.81;100.00;100758.60;1826055;78;21182;-51
2021/03/14 07:02:27;;;;;;;23.57;14.15;;;;;;;6.85;100.00;100756.30;1825690;78;21537;-51
2021/03/14 07:05:04;;;;;;;21.20;13.63;;;;;;;6.90;100.00;100761.98;1873144;76;24538;-52
2021/03/14 07:07:39;;;;;;;19.60;13.48;;;;;;;6.87;100.00;100771.80;1841074;78;20875;-51
2021/03/14 07:10:12;;;;;;;25.40;14.40;;;;;;;6.94;100.00;100767.67;1840946;77;21005;-51
2021/03/14 07:12:45;;;;;;;24.90;14.43;;;;;;;7.01;100.00;100772.00;1841147;78;21359;-51
2021/03/14 07:15:20;;;;;;;24.85;15.10;;;;;;;7.05;100.00;100767.02;1841153;77;20997;-51
2021/03/14 07:17:55;;;;;;;20.37;13.70;;;;;;;7.09;100.00;100767.38;1841131;78;21517;-51
2021/03/14 07:20:27;;;;;;;23.20;14.55;;;;;;;7.17;100.00;100765.89;1841322;78;21571;-51
2021/03/14 07:23:01;;;;;;;22.32;15.13;;;;;;;7.27;100.00;100761.25;1840977;78;21176;-51
2021/03/14 07:25:30;;;;;;;25.80;16.35;;;;;;;7.40;100.00;100761.39;1841203;78;20969;-52
2021/03/14 07:27:58;;;;;;;23.10;15.60;;;;;;;7.47;100.00;100755.47;1841013;78;21009;-53
2021/03/14 07:30:28;;;;;;;26.70;17.45;;;;;;;7.51;99.57;100760.29;1841014;78;20997;-51
2021/03/14 07:32:56;;;;;;;24.98;17.20;;;;;;;7.54;98.68;100770.45;1841007;78;21024;-51
2021/03/14 07:35:24;;;;;;;27.15;16.95;;;;;;;7.54;98.06;100763.78;1841109;77;21368;-52
2021/03/14 07:37:56;;;;;;;24.63;16.62;;;;;;;7.59;98.12;100760.98;1841103;78;21485;-51
2021/03/14 07:40:26;;;;;;;29.92;18.27;;;;;;;7.68;97.40;100755.46;1841044;78;20997;-51
2021/03/14 07:43:00;;;;;;;25.20;16.97;;;;;;;7.71;96.38;100760.72;1840997;78;21037;-52
2021/03/14 07:45:28;;;;;;;26.20;16.17;;;;;;;7.72;95.44;100752.24;1827643;77;21117;-51
2021/03/14 07:47:57;;;;;;;27.02;16.32;;;;;;;7.71;94.88;100753.16;1824971;78;21250;-52
2021/03/14 07:50:30;;;;;;;26.65;17.98;;;;;;;7.77;94.34;100756.15;1824898;78;21467;-52
2021/03/14 07:53:09;;;;;;;25.72;17.45;;;;;;;7.83;93.88;100757.33;1825106;77;21110;-51
2021/03/14 07:55:37;;;;;;;26.90;16.77;;;;;;;7.87;93.49;100755.04;1824929;77;20976;-52
2021/03/14 07:58:04;;;;;;;26.30;16.67;;;;;;;7.89;93.11;100758.55;1824904;78;21134;-51
2021/03/14 08:00:35;;;;;;;26.50;16.48;;;;;;;7.89;92.75;100750.06;1824938;77;21344;-52
2021/03/14 08:03:05;;;;;;;31.20;17.50;;;;;;;7.92;92.76;100747.79;1825193;78;22977;-51
2021/03/14 08:05:42;;;;;;;29.77;18.62;;;;;;;7.98;92.40;100752.97;1831040;78;21138;-52
2021/03/14 08:08:25;;;;;;;26.65;16.27;;;;;;;8.05;92.24;100752.81;1830985;78;21026;-52
2021/03/14 08:10:53;;;;;;;27.98;15.40;;;;;;;8.09;92.13;100749.18;1810104;77;20868;-51
2021/03/14 08:13:36;;;;;;;23.67;15.43;;;;;;;8.15;92.01;100752.55;1830932;78;21389;-52
2021/03/14 08:16:08;;;;;;;25.37;16.00;;;;;;;8.28;91.59;100741.57;1830463;78;20976;-52
2021/03/14 08:18:41;;;;;;;25.32;15.80;;;;;;;8.41;90.07;100751.48;1830356;78;21538;-52
2021/03/14 08:21:32;;;;;;;21.42;14.25;;;;;;;8.38;89.42;100747.55;1830488;78;21059;-51
2021/03/14 08:24:02;;;;;;;25.23;14.23;;;;;;;8.45;89.36;100750.47;1829177;77;21055;-51
2021/03/14 08:26:36;;;;;;;21.35;14.73;;;;;;;8.58;89.08;100748.39;1830407;78;21429;-51
2021/03/14 08:29:11;;;;;;;23.90;15.18;;;;;;;8.70;88.14;100738.72;1830507;78;21145;-52
2021/03/14 08:31:49;;;;;;;22.67;15.18;;;;;;;8.82;87.31;100740.61;1830361;78;20928;-52
2021/03/14 08:34:32;;;;;;;22.05;14.80;;;;;;;8.87;86.37;100740.91;1830292;77;20884;-52
2021/03/14 08:37:03;;;;;;;21.55;15.13;;;;;;;8.91;86.18;100739.48;1830671;77;21581;-52
2021/03/14 08:39:40;;;;;;;21.85;15.20;;;;;;;8.95;85.93;100734.45;1814726;78;21204;-52
2021/03/14 08:42:07;;;;;;;24.67;15.18;;;;;;;9.00;85.82;100743.25;1790900;80;21117;-52
2021/03/14 08:44:43;;;;;;;24.63;15.13;;;;;;;9.06;85.26;100736.83;1794868;79;21145;-51
2021/03/14 08:47:17;;;;;;;24.70;15.32;;;;;;;9.17;84.90;100742.31;1778629;79;21152;-53
2021/03/14 08:49:50;;;;;;;26.87;15.38;;;;;;;9.23;84.18;100741.70;1769020;79;21175;-52
2021/03/14 08:52:20;;;;;;;24.70;15.78;;;;;;;9.32;83.59;100736.06;1795849;79;21343;-52
2021/03/14 08:54:52;;;;;;;25.57;16.25;;;;;;;9.38;83.16;100736.35;1794204;79;21084;-51
2021/03/14 08:57:21;;;;;;;25.52;15.08;;;;;;;9.40;82.74;100734.06;1795876;79;21147;-51
2021/03/14 08:59:52;;;;;;;25.70;15.50;;;;;;;9.40;82.11;100728.70;1795776;79;21087;-51
2021/03/14 09:02:28;;;;;;;22.73;15.48;;;;;;;9.44;82.55;100733.03;1795789;79;20919;-52
2021/03/14 09:05:14;;;;;;;23.47;16.05;;;;;;;9.56;81.96;100733.56;1791198;78;21418;-52
2021/03/14 09:07:58;;;;;;;26.30;16.93;;;;;;;9.62;81.14;100728.04;1763590;79;21118;-52
2021/03/14 09:10:26;;;;;;;28.30;17.30;;;;;;;9.64;80.73;100727.97;1789753;80;21500;-52
2021/03/14 09:13:00;;;;;;;25.60;16.12;;;;;;;9.61;80.44;100723.58;1788635;79;21146;-52
2021/03/14 09:15:35;;;;;;;23.50;15.98;;;;;;;9.60;80.24;100723.17;1787952;79;21140;-52
2021/03/14 09:18:07;;;;;;;25.90;15.80;;;;;;;9.62;80.20;100721.80;1766031;79;21374;-53
2021/03/14 09:20:36;;;;;;;24.12;15.28;;;;;;;9.68;79.57;100722.48;1789510;80;21098;-53
2021/03/14 09:23:06;;;;;;;23.77;14.75;;;;;;;9.67;78.95;100718.50;1789625;80;21047;-51
2021/03/14 09:25:39;;;;;;;25.48;14.93;;;;;;;9.60;78.63;100713.80;1788877;79;20975;-52
2021/03/14 09:28:07;;;;;;;23.80;16.42;;;;;;;9.50;78.79;100709.67;1789748;80;21188;-52
2021/03/14 09:30:37;;;;;;;22.87;15.08;;;;;;;9.46;79.09;100709.77;1788400;79;21383;-52
2021/03/14 09:33:06;;;;;;;20.17;12.90;;;;;;;9.43;79.35;100709.88;1789558;80;21203;-52
2021/03/14 09:35:36;;;;;;;15.40;11.50;;;;;;;9.39;79.58;100706.85;1787443;79;21015;-52
2021/03/14 09:38:12;;;;;;;18.50;13.20;;;;;;;9.39;79.44;100707.33;1788266;80;21142;-52
2021/03/14 09:40:45;;;;;;;21.75;13.08;;;;;;;9.34;79.42;100704.78;1789641;80;21042;-51
2021/03/14 09:43:16;;;;;;;18.90;12.45;;;;;;;9.27;79.49;100697.87;1789482;79;21128;-52
2021/03/14 09:46:00;;;;;;;20.85;13.43;;;;;;;9.22;79.56;100697.15;1784185;80;21137;-51
2021/03/14 09:48:34;;;;;;;19.12;13.13;;;;;;;9.09;79.21;100689.48;1776826;80;20952;-53
2021/03/14 09:51:07;;;;;;;19.00;12.18;;;;;;;8.92;79.73;100689.09;1776813;80;21103;-52
2021/03/14 09:53:39;;;;;;;21.68;13.68;;;;;;;8.70;80.61;100695.95;1776897;80;21457;-52
2021/03/14 09:56:10;;;;;;;21.00;13.13;;;;;;;8.63;81.32;100689.03;1756847;81;21511;-51
2021/03/14 09:59:02;;;;;;;19.85;12.55;;;;;;;8.59;82.22;100698.02;1776970;80;21052;-52
2021/03/14 10:01:36;;;;;;;21.65;13.88;;;;;;;8.56;82.45;100690.98;1775872;80;21099;-53
2021/03/14 10:04:04;;;;;;;23.90;15.83;;;;;;;8.50;82.44;100692.95;1727174;81;21073;-52
2021/03/14 10:06:38;;;;;;;24.57;16.17;;;;;;;8.41;82.72;100699.38;1770689;81;21190;-52
2021/03/14 10:09:08;;;;;;;23.70;14.63;;;;;;;8.37;83.05;100697.72;1756831;81;21531;-51
2021/03/14 10:11:36;;;;;;;26.68;14.70;;;;;;;8.34;83.43;100703.14;1746758;80;21123;-52
2021/03/14 10:14:04;;;;;;;27.02;17.40;;;;;;;8.36;83.57;100698.63;1776820;80;21162;-51
2021/03/14 10:16:34;;;;;;;26.40;16.60;;;;;;;8.37;83.34;100689.70;1776794;80;21055;-51
2021/03/14 10:19:04;;;;;;;28.52;17.50;;;;;;;8.34;83.49;100685.78;1776737;80;21090;-52
2021/03/14 10:21:35;;;;;;;28.85;17.80;;;;;;;8.33;83.11;100670.67;1776886;80;21428;-52
2021/03/14 10:24:27;;;;;;;29.98;18.73;;;;;;;8.27;83.18;100676.57;1776480;80;21202;-53
2021/03/14 10:27:01;;;;;;;31.70;18.75;;;;;;;8.21;83.14;100669.20;1755646;81;21022;-52
2021/03/14 10:29:40;;;;;;;35.80;19.65;;;;;;;8.15;83.60;100662.22;1776209;80;21087;-51
2021/03/14 10:32:21;;;;;;;35.38;20.65;;;;;;;8.16;83.67;100662.64;1772134;80;21126;-51
2021/03/14 10:34:53;;;;;;;37.20;22.20;;;;;;;8.12;83.48;100656.49;1776889;80;22268;-51
2021/03/14 10:37:33;;;;;;;38.20;23.02;;;;;;;8.11;83.58;100647.20;1776837;80;20937;-52
2021/03/14 10:40:12;;;;;;;42.10;24.37;;;;;;;8.07;83.52;100646.84;1756810;81;20950;-51
2021/03/14 10:42:50;;;;;;;43.23;24.80;;;;;;;7.96;83.77;100646.67;1746415;80;21171;-51
2021/03/14 10:45:23;;;;;;;44.50;24.18;;;;;;;7.86;84.02;100649.17;1771170;80;21059;-51
2021/03/14 10:48:04;;;;;;;50.23;24.37;;;;;;;7.76;84.44;100636.96;1776147;80;21373;-51
2021/03/14 10:50:34;;;;;;;46.00;25.50;;;;;;;7.65;84.65;100634.12;1776185;80;20964;-52
2021/03/14 10:53:16;;;;;;;48.80;25.50;;;;;;;7.53;85.32;100627.73;1755818;81;21081;-51
2021/03/14 10:55:48;;;;;;;46.70;25.20;;;;;;;7.43;85.66;100630.64;1767466;81;21127;-51
2021/03/14 10:58:19;;;;;;;43.33;22.77;;;;;;;7.34;86.12;100624.17;1756773;81;21141;-51
2021/03/14 11:00:54;;;;;;;40.38;21.93;;;;;;;7.25;86.42;100625.73;1773957;80;22257;-51
2021/03/14 11:03:36;;;;;;;39.30;21.57;;;;;;;7.17;86.81;100622.77;1776828;80;21012;-52
2021/03/14 11:06:16;;;;;;;40.80;23.38;;;;;;;7.10;86.97;100626.49;1776703;80;20937;-51
2021/03/14 11:09:03;;;;;;;47.58;23.57;;;;;;;7.05;87.41;100628.39;1776832;80;20937;-51
2021/03/14 11:11:43;;;;;;;37.05;20.82;;;;;;;7.07;87.68;100617.67;1756790;81;21066;-51
2021/03/14 11:14:35;;;;;;;36.58;20.57;;;;;;;7.09;87.94;100619.41;1770813;81;22030;-51
2021/03/14 11:17:15;;;;;;;36.58;20.80;;;;;;;7.16;87.73;100610.34;1755006;81;21121;-51
2021/03/14 11:19:48;;;;;;;42.65;21.85;;;;;;;7.21;87.19;100610.25;1775758;80;21188;-51
2021/03/14 11:22:19;;;;;;;37.85;20.43;;;;;;;7.19;86.66;100602.74;1776874;80;21582;-51
2021/03/14 11:24:49;;;;;;;35.33;20.02;;;;;;;7.13;86.61;100595.75;1776631;80;21138;-51
2021/03/14 11:27:17;;;;;;;39.23;20.97;;;;;;;7.11;86.67;100594.92;1776804;80;21372;-51
2021/03/14 11:29:45;;;;;;;35.25;19.82;;;;;;;7.11;86.68;100601.58;1776694;80;21166;-51
2021/03/14 11:32:18;;;;;;;36.50;19.30;;;;;;;7.04;86.43;100594.65;1756552;81;21141;-53
2021/03/14 11:34:48;;;;;;;34.23;19.67;;;;;;;6.91;86.53;100595.38;1774076;80;21166;-50